createdAt,value
2023-03-28T00:01:12.654Z,100.00
2023-03-28T00:03:40.666Z,100.00
2023-03-28T00:06:12.385Z,100.00
2023-03-28T00:08:40.940Z,100.00
2023-03-28T00:11:15.543Z,100.00
2023-03-28T00:13:43.060Z,100.00
2023-03-28T00:16:13.643Z,100.00
2023-03-28T00:18:43.038Z,100.00
2023-03-28T00:21:25.949Z,100.00
2023-03-28T00:23:55.701Z,100.00
2023-03-28T00:26:26.928Z,100.00
2023-03-28T00:28:54.658Z,100.00
2023-03-28T00:31:23.419Z,100.00
2023-03-28T00:33:51.062Z,100.00
2023-03-28T00:36:22.770Z,100.00
2023-03-28T00:38:52.346Z,100.00
2023-03-28T00:41:21.765Z,100.00
2023-03-28T00:43:52.310Z,100.00
2023-03-28T00:46:22.856Z,100.00
2023-03-28T00:48:54.755Z,100.00
2023-03-28T00:51:28.153Z,100.00
2023-03-28T00:53:59.953Z,100.00
2023-03-28T00:56:31.558Z,100.00
2023-03-28T00:59:02.943Z,100.00
2023-03-28T01:01:30.576Z,100.00
2023-03-28T01:04:02.980Z,100.00
2023-03-28T01:06:33.523Z,100.00
2023-03-28T01:09:04.597Z,100.00
2023-03-28T01:11:33.975Z,100.00
2023-03-28T01:14:04.180Z,100.00
2023-03-28T01:16:32.622Z,100.00
2023-03-28T01:19:02.711Z,100.00
2023-03-28T01:21:54.852Z,100.00
2023-03-28T01:24:43.678Z,100.00
2023-03-28T01:27:30.996Z,100.00
2023-03-28T01:30:02.449Z,100.00
2023-03-28T01:32:48.679Z,100.00
2023-03-28T01:35:34.635Z,100.00
2023-03-28T01:38:08.189Z,100.00
2023-03-28T01:40:39.472Z,100.00
2023-03-28T01:43:57.092Z,100.00
2023-03-28T01:46:31.952Z,100.00
2023-03-28T01:49:02.225Z,100.00
2023-03-28T01:51:47.738Z,100.00
2023-03-28T01:54:30.141Z,100.00
2023-03-28T01:57:15.983Z,100.00
2023-03-28T01:59:48.939Z,100.00
2023-03-28T02:02:31.952Z,100.00
2023-03-28T02:05:04.283Z,100.00
2023-03-28T02:07:33.862Z,100.00
2023-03-28T02:10:04.728Z,100.00
2023-03-28T02:12:38.356Z,100.00
2023-03-28T02:15:09.797Z,100.00
2023-03-28T02:17:43.936Z,100.00
2023-03-28T02:20:16.757Z,100.00
2023-03-28T02:23:07.735Z,100.00
2023-03-28T02:25:36.585Z,100.00
2023-03-28T02:28:07.984Z,100.00
2023-03-28T02:30:36.775Z,100.00
2023-03-28T02:33:08.706Z,100.00
2023-03-28T02:35:59.612Z,100.00
2023-03-28T02:38:47.932Z,100.00
2023-03-28T02:41:24.585Z,100.00
2023-03-28T02:44:02.240Z,100.00
2023-03-28T02:46:42.894Z,100.00
2023-03-28T02:49:49.240Z,100.00
2023-03-28T02:52:40.150Z,100.00
2023-03-28T02:55:19.559Z,100.00
2023-03-28T02:57:51.726Z,100.00
2023-03-28T03:00:21.169Z,100.00
2023-03-28T03:02:51.671Z,100.00
2023-03-28T03:05:21.226Z,100.00
2023-03-28T03:07:50.346Z,100.00
2023-03-28T03:10:18.788Z,100.00
2023-03-28T03:12:47.359Z,100.00
2023-03-28T03:15:17.188Z,100.00
2023-03-28T03:17:45.182Z,100.00
2023-03-28T03:20:13.039Z,100.00
2023-03-28T03:22:41.001Z,100.00
2023-03-28T03:25:10.349Z,100.00
2023-03-28T03:27:39.405Z,100.00
2023-03-28T03:30:07.807Z,100.00
2023-03-28T03:32:35.561Z,100.00
2023-03-28T03:35:03.614Z,100.00
2023-03-28T03:37:31.196Z,100.00
2023-03-28T03:39:58.799Z,100.00
2023-03-28T03:42:26.375Z,100.00
2023-03-28T03:44:54.463Z,100.00
2023-03-28T03:47:22.044Z,100.00
2023-03-28T03:49:49.572Z,100.00
2023-03-28T03:52:17.248Z,100.00
2023-03-28T03:54:44.762Z,100.00
2023-03-28T03:57:12.337Z,100.00
2023-03-28T03:59:39.872Z,100.00
2023-03-28T04:02:07.429Z,100.00
2023-03-28T04:04:35.027Z,100.00
2023-03-28T04:07:02.537Z,100.00
2023-03-28T04:09:30.108Z,100.00
2023-03-28T04:11:57.745Z,100.00
2023-03-28T04:14:25.510Z,100.00
2023-03-28T04:16:53.787Z,100.00
2023-03-28T04:19:24.404Z,100.00
2023-03-28T04:21:52.690Z,100.00
2023-03-28T04:24:24.242Z,100.00
2023-03-28T04:26:55.936Z,100.00
2023-03-28T04:29:30.536Z,100.00
2023-03-28T04:31:59.291Z,100.00
2023-03-28T04:34:30.000Z,100.00
2023-03-28T04:37:02.544Z,100.00
2023-03-28T04:39:35.837Z,100.00
2023-03-28T04:42:05.835Z,100.00
2023-03-28T04:44:33.454Z,100.00
2023-03-28T04:47:01.834Z,100.00
2023-03-28T04:49:29.515Z,100.00
2023-03-28T04:51:57.074Z,100.00
2023-03-28T04:54:24.565Z,100.00
2023-03-28T04:56:52.161Z,100.00
2023-03-28T04:59:20.170Z,100.00
2023-03-28T05:01:50.022Z,100.00
2023-03-28T05:04:18.692Z,100.00
2023-03-28T05:06:50.836Z,100.00
2023-03-28T05:09:18.605Z,100.00
2023-03-28T05:11:47.120Z,100.00
2023-03-28T05:14:15.137Z,100.00
2023-03-28T05:16:42.897Z,100.00
2023-03-28T05:19:11.134Z,100.00
2023-03-28T05:21:38.687Z,100.00
2023-03-28T05:24:06.876Z,100.00
2023-03-28T05:26:34.426Z,100.00
2023-03-28T05:29:01.939Z,100.00
2023-03-28T05:31:30.733Z,100.00
2023-03-28T05:33:58.461Z,100.00
2023-03-28T05:36:26.277Z,100.00
2023-03-28T05:38:53.900Z,100.00
2023-03-28T05:41:21.528Z,100.00
2023-03-28T05:43:49.048Z,100.00
2023-03-28T05:46:16.621Z,100.00
2023-03-28T05:48:44.236Z,100.00
2023-03-28T05:51:17.509Z,100.00
2023-03-28T05:53:45.381Z,100.00
2023-03-28T05:56:12.969Z,100.00
2023-03-28T05:58:41.616Z,100.00
2023-03-28T06:01:10.005Z,100.00
2023-03-28T06:03:40.078Z,100.00
2023-03-28T06:06:08.388Z,100.00
2023-03-28T06:08:36.185Z,100.00
2023-03-28T06:11:04.797Z,100.00
2023-03-28T06:13:32.360Z,100.00
2023-03-28T06:15:59.977Z,100.00
2023-03-28T06:18:27.568Z,100.00
2023-03-28T06:20:55.123Z,100.00
2023-03-28T06:23:22.943Z,100.00
2023-03-28T06:25:50.691Z,100.00
2023-03-28T06:28:18.245Z,100.00
2023-03-28T06:30:50.409Z,100.00
2023-03-28T06:33:17.896Z,100.00
2023-03-28T06:35:46.284Z,100.00
2023-03-28T06:38:13.894Z,100.00
2023-03-28T06:40:41.591Z,100.00
2023-03-28T06:43:09.185Z,100.00
2023-03-28T06:45:36.811Z,100.00
2023-03-28T06:48:04.686Z,100.00
2023-03-28T06:50:32.371Z,100.00
2023-03-28T06:52:59.949Z,100.00
2023-03-28T06:55:27.711Z,100.00
2023-03-28T06:57:55.399Z,100.00
2023-03-28T07:00:23.393Z,100.00
2023-03-28T07:02:51.060Z,100.00
2023-03-28T07:05:18.836Z,100.00
2023-03-28T07:07:46.454Z,100.00
2023-03-28T07:10:14.013Z,100.00
2023-03-28T07:12:41.636Z,100.00
2023-03-28T07:15:09.624Z,100.00
2023-03-28T07:17:37.270Z,100.00
2023-03-28T07:20:05.391Z,100.00
2023-03-28T07:22:33.158Z,100.00
2023-03-28T07:25:00.853Z,100.00
2023-03-28T07:27:28.322Z,100.00
2023-03-28T07:29:55.995Z,100.00
2023-03-28T07:32:23.783Z,100.00
2023-03-28T07:34:51.436Z,100.00
2023-03-28T07:37:19.070Z,100.00
2023-03-28T07:39:46.742Z,100.00
2023-03-28T07:42:15.921Z,100.00
2023-03-28T07:44:43.726Z,100.00
2023-03-28T07:47:11.503Z,100.00
2023-03-28T07:49:39.567Z,99.34
2023-03-28T07:52:07.421Z,100.00
2023-03-28T07:54:35.178Z,99.24
2023-03-28T07:57:02.778Z,95.85
2023-03-28T07:59:30.383Z,93.53
2023-03-28T08:01:58.181Z,90.85
2023-03-28T08:04:25.789Z,88.90
2023-03-28T08:06:53.309Z,88.93
2023-03-28T08:09:21.267Z,86.40
2023-03-28T08:11:48.831Z,86.55
2023-03-28T08:14:18.891Z,87.53
2023-03-28T08:16:47.016Z,87.84
2023-03-28T08:19:14.874Z,88.54
2023-03-28T08:21:42.467Z,85.85
2023-03-28T08:24:12.913Z,83.72
2023-03-28T08:26:47.394Z,84.67
2023-03-28T08:29:16.363Z,83.98
2023-03-28T08:31:43.983Z,82.06
2023-03-28T08:34:11.520Z,79.23
2023-03-28T08:36:39.040Z,81.83
2023-03-28T08:39:06.661Z,78.03
2023-03-28T08:42:00.138Z,77.85
2023-03-28T08:44:43.075Z,78.08
2023-03-28T08:47:18.636Z,77.96
2023-03-28T08:49:49.372Z,74.93
2023-03-28T08:52:20.129Z,73.86
2023-03-28T08:54:56.283Z,73.02
2023-03-28T08:57:29.287Z,73.44
2023-03-28T09:00:03.657Z,72.81
2023-03-28T09:02:32.511Z,72.48
2023-03-28T09:05:11.934Z,68.41
2023-03-28T09:07:59.821Z,67.64
2023-03-28T09:10:43.894Z,69.80
2023-03-28T09:13:14.513Z,68.78
2023-03-28T09:15:47.585Z,64.77
2023-03-28T09:18:33.258Z,62.01
2023-03-28T09:21:03.447Z,61.82
2023-03-28T09:23:39.686Z,64.57
2023-03-28T09:26:18.974Z,61.88
2023-03-28T09:29:14.702Z,62.09
2023-03-28T09:31:47.823Z,59.89
2023-03-28T09:34:23.154Z,60.43
2023-03-28T09:36:55.326Z,62.80
2023-03-28T09:39:28.518Z,61.71
2023-03-28T09:42:09.333Z,59.70
2023-03-28T09:44:59.144Z,59.65
2023-03-28T09:47:27.364Z,57.26
2023-03-28T09:50:05.618Z,57.56
2023-03-28T09:52:37.714Z,56.28
2023-03-28T09:55:05.476Z,56.47
2023-03-28T09:58:02.769Z,56.26
2023-03-28T10:00:30.722Z,58.29
2023-03-28T10:02:58.312Z,57.32
2023-03-28T10:05:40.125Z,57.10
2023-03-28T10:08:24.104Z,55.46
2023-03-28T10:10:57.793Z,57.81
2023-03-28T10:13:26.264Z,58.56
2023-03-28T10:15:57.873Z,58.33
2023-03-28T10:18:28.738Z,60.69
2023-03-28T10:20:57.434Z,59.23
2023-03-28T10:23:26.139Z,58.01
2023-03-28T10:25:56.399Z,54.25
2023-03-28T10:28:36.486Z,54.30
2023-03-28T10:31:04.922Z,52.38
2023-03-28T10:33:38.246Z,50.87
2023-03-28T10:36:09.586Z,50.90
2023-03-28T10:38:49.373Z,50.51
2023-03-28T10:41:26.110Z,48.39
2023-03-28T10:43:54.881Z,45.51
2023-03-28T10:46:36.125Z,45.43
2023-03-28T10:49:14.308Z,46.87
2023-03-28T10:51:43.759Z,47.18
2023-03-28T10:54:35.276Z,44.68
2023-03-28T10:57:17.814Z,45.86
2023-03-28T10:59:51.424Z,44.91
2023-03-28T11:02:37.782Z,42.71
2023-03-28T11:05:33.023Z,42.98
2023-03-28T11:08:10.928Z,42.67
2023-03-28T11:11:00.179Z,43.35
2023-03-28T11:13:33.753Z,44.10
2023-03-28T11:16:22.303Z,43.99
2023-03-28T11:19:06.051Z,44.89
2023-03-28T11:21:58.277Z,46.20
2023-03-28T11:24:32.016Z,46.78
2023-03-28T11:27:18.226Z,47.53
2023-03-28T11:29:50.874Z,46.80
2023-03-28T11:32:21.691Z,45.84
2023-03-28T11:35:03.271Z,45.29
2023-03-28T11:37:54.880Z,42.00
2023-03-28T11:40:28.214Z,41.85
2023-03-28T11:43:04.503Z,43.74
2023-03-28T11:45:53.025Z,43.11
2023-03-28T11:48:49.246Z,43.61
2023-03-28T11:51:21.736Z,43.24
2023-03-28T11:54:13.146Z,43.90
2023-03-28T11:56:53.279Z,42.64
2023-03-28T11:59:39.608Z,42.41
2023-03-28T12:02:31.906Z,41.93
2023-03-28T12:05:20.993Z,43.48
2023-03-28T12:07:53.992Z,42.78
2023-03-28T12:10:26.452Z,43.27
2023-03-28T12:13:17.808Z,42.33
2023-03-28T12:15:53.137Z,42.72
2023-03-28T12:18:28.310Z,44.54
2023-03-28T12:21:14.905Z,44.27
2023-03-28T12:24:11.400Z,42.85
2023-03-28T12:26:58.046Z,44.44
2023-03-28T12:29:40.205Z,44.64
2023-03-28T12:32:26.603Z,44.95
2023-03-28T12:35:00.252Z,45.29
2023-03-28T12:37:36.577Z,45.57
2023-03-28T12:40:19.929Z,46.30
2023-03-28T12:42:48.790Z,45.16
2023-03-28T12:45:23.954Z,45.54
2023-03-28T12:47:54.924Z,45.52
2023-03-28T12:50:40.542Z,45.31
2023-03-28T12:53:12.640Z,44.75
2023-03-28T12:55:51.597Z,45.63
2023-03-28T12:58:38.122Z,46.37
2023-03-28T13:01:08.693Z,46.68
2023-03-28T13:04:04.535Z,46.68
2023-03-28T13:07:18.414Z,47.71
2023-03-28T13:10:12.868Z,46.13
2023-03-28T13:13:11.223Z,46.49
2023-03-28T13:15:56.536Z,44.99
2023-03-28T13:18:31.339Z,44.25
2023-03-28T13:21:00.414Z,45.76
2023-03-28T13:23:35.685Z,43.67
2023-03-28T13:26:06.514Z,44.52
2023-03-28T13:28:48.400Z,43.25
2023-03-28T13:31:19.059Z,43.76
2023-03-28T13:33:49.702Z,42.69
2023-03-28T13:36:23.150Z,41.79
2023-03-28T13:39:00.467Z,41.51
2023-03-28T13:41:43.652Z,42.16
2023-03-28T13:44:15.288Z,40.94
2023-03-28T13:46:43.909Z,41.64
2023-03-28T13:49:11.524Z,40.15
2023-03-28T13:52:04.795Z,40.79
2023-03-28T13:54:32.933Z,41.79
2023-03-28T13:57:06.514Z,40.75
2023-03-28T13:59:38.134Z,41.24
2023-03-28T14:02:20.232Z,40.65
2023-03-28T14:04:57.077Z,41.53
2023-03-28T14:07:26.409Z,42.37
2023-03-28T14:09:56.124Z,42.01
2023-03-28T14:12:28.554Z,42.22
2023-03-28T14:14:59.270Z,43.38
2023-03-28T14:17:36.391Z,43.29
2023-03-28T14:20:08.239Z,43.44
2023-03-28T14:22:52.837Z,43.14
2023-03-28T14:25:26.316Z,44.88
2023-03-28T14:27:56.428Z,43.70
2023-03-28T14:30:29.916Z,43.95
2023-03-28T14:32:59.889Z,44.31
2023-03-28T14:35:31.982Z,44.63
2023-03-28T14:38:03.853Z,44.73
2023-03-28T14:40:36.441Z,45.25
2023-03-28T14:43:07.289Z,45.73
2023-03-28T14:45:37.620Z,45.49
2023-03-28T14:48:09.375Z,46.87
2023-03-28T14:50:39.888Z,46.28
2023-03-28T14:53:10.459Z,45.75
2023-03-28T14:55:38.651Z,46.90
2023-03-28T14:58:07.179Z,45.92
2023-03-28T15:00:41.988Z,46.12
2023-03-28T15:03:15.754Z,45.92
2023-03-28T15:05:50.024Z,45.77
2023-03-28T15:08:36.803Z,46.32
2023-03-28T15:11:22.208Z,46.90
2023-03-28T15:13:58.675Z,47.40
2023-03-28T15:16:27.849Z,46.84
2023-03-28T15:19:07.089Z,47.84
2023-03-28T15:21:40.044Z,48.86
2023-03-28T15:24:13.447Z,48.26
2023-03-28T15:26:48.042Z,48.16
2023-03-28T15:29:19.516Z,49.63
2023-03-28T15:31:47.673Z,48.97
2023-03-28T15:34:27.401Z,50.25
2023-03-28T15:37:03.818Z,49.42
2023-03-28T15:39:36.088Z,50.59
2023-03-28T15:42:22.733Z,53.13
2023-03-28T15:44:59.633Z,54.21
2023-03-28T15:47:30.596Z,56.38
2023-03-28T15:50:09.525Z,59.99
2023-03-28T15:52:37.584Z,63.30
2023-03-28T15:55:06.966Z,67.78
2023-03-28T15:57:34.660Z,68.58
2023-03-28T16:00:02.283Z,70.25
2023-03-28T16:02:33.229Z,71.45
2023-03-28T16:05:15.846Z,74.44
2023-03-28T16:07:46.734Z,74.85
2023-03-28T16:10:17.519Z,77.66
2023-03-28T16:12:46.077Z,77.03
2023-03-28T16:15:14.318Z,79.80
2023-03-28T16:17:44.728Z,84.02
2023-03-28T16:20:26.240Z,85.68
2023-03-28T16:22:53.767Z,92.56
2023-03-28T16:25:21.315Z,93.35
2023-03-28T16:27:48.960Z,95.40
2023-03-28T16:30:40.476Z,96.14
2023-03-28T16:33:08.159Z,100.00
2023-03-28T16:35:36.552Z,99.76
2023-03-28T16:38:04.341Z,100.00
2023-03-28T16:40:31.903Z,99.55
2023-03-28T16:43:00.139Z,97.88
2023-03-28T16:45:29.777Z,95.14
2023-03-28T16:47:57.613Z,95.51
2023-03-28T16:50:25.179Z,96.56
2023-03-28T16:52:52.746Z,98.43
2023-03-28T16:55:20.464Z,96.01
2023-03-28T16:57:48.016Z,95.99
2023-03-28T17:00:18.056Z,95.54
2023-03-28T17:02:49.083Z,95.39
2023-03-28T17:05:17.849Z,96.49
2023-03-28T17:07:45.507Z,99.22
2023-03-28T17:10:13.465Z,99.79
2023-03-28T17:12:41.389Z,100.00
2023-03-28T17:15:10.006Z,100.00
2023-03-28T17:17:37.607Z,100.00
2023-03-28T17:20:06.523Z,100.00
2023-03-28T17:22:34.143Z,100.00
2023-03-28T17:25:02.092Z,100.00
2023-03-28T17:27:30.136Z,100.00
2023-03-28T17:29:57.905Z,100.00
2023-03-28T17:32:25.794Z,100.00
2023-03-28T17:34:53.715Z,100.00
2023-03-28T17:37:24.318Z,100.00
2023-03-28T17:39:52.413Z,100.00
2023-03-28T17:42:19.886Z,100.00
2023-03-28T17:44:47.378Z,100.00
2023-03-28T17:47:15.227Z,100.00
2023-03-28T17:49:43.215Z,100.00
2023-03-28T17:52:11.233Z,100.00
2023-03-28T17:54:38.792Z,100.00
2023-03-28T17:57:08.024Z,100.00
2023-03-28T17:59:36.180Z,100.00
2023-03-28T18:02:04.099Z,100.00
2023-03-28T18:04:31.845Z,100.00
2023-03-28T18:06:59.357Z,100.00
2023-03-28T18:09:27.508Z,100.00
2023-03-28T18:11:55.378Z,100.00
2023-03-28T18:14:22.876Z,100.00
2023-03-28T18:16:50.804Z,100.00
2023-03-28T18:19:18.664Z,100.00
2023-03-28T18:21:47.058Z,100.00
2023-03-28T18:24:14.767Z,100.00
2023-03-28T18:26:42.390Z,100.00
2023-03-28T18:29:10.050Z,100.00
2023-03-28T18:31:39.027Z,100.00
2023-03-28T18:34:06.731Z,100.00
2023-03-28T18:36:36.925Z,100.00
2023-03-28T18:39:06.029Z,100.00
2023-03-28T18:41:33.702Z,100.00
2023-03-28T18:44:01.314Z,100.00
2023-03-28T18:46:29.813Z,100.00
2023-03-28T18:48:59.621Z,100.00
2023-03-28T18:51:27.674Z,100.00
2023-03-28T18:53:55.824Z,100.00
2023-03-28T18:56:23.803Z,100.00
2023-03-28T18:58:51.436Z,100.00
2023-03-28T19:01:20.493Z,100.00
2023-03-28T19:03:49.968Z,100.00
2023-03-28T19:06:17.808Z,100.00
2023-03-28T19:08:50.074Z,100.00
2023-03-28T19:11:19.617Z,100.00
2023-03-28T19:13:47.105Z,100.00
2023-03-28T19:16:19.040Z,100.00
2023-03-28T19:18:47.992Z,100.00
2023-03-28T19:21:16.677Z,100.00
2023-03-28T19:23:44.550Z,100.00
2023-03-28T19:26:13.702Z,100.00
2023-03-28T19:28:41.885Z,100.00
2023-03-28T19:31:11.990Z,100.00
2023-03-28T19:33:40.738Z,100.00
2023-03-28T19:36:08.970Z,100.00
2023-03-28T19:38:38.304Z,100.00
2023-03-28T19:41:10.872Z,100.00
2023-03-28T19:43:39.691Z,100.00
2023-03-28T19:46:09.622Z,100.00
2023-03-28T19:48:37.575Z,100.00
2023-03-28T19:51:05.175Z,100.00
2023-03-28T19:53:35.031Z,100.00
2023-03-28T19:56:02.838Z,100.00
2023-03-28T19:58:31.236Z,100.00
2023-03-28T20:00:58.957Z,100.00
2023-03-28T20:03:26.703Z,100.00
2023-03-28T20:05:54.410Z,100.00
2023-03-28T20:08:22.041Z,100.00
2023-03-28T20:10:53.713Z,100.00
2023-03-28T20:13:21.448Z,100.00
2023-03-28T20:15:49.130Z,100.00
2023-03-28T20:18:19.963Z,100.00
2023-03-28T20:20:56.708Z,100.00
2023-03-28T20:23:26.067Z,100.00
2023-03-28T20:25:54.967Z,100.00
2023-03-28T20:28:25.053Z,100.00
2023-03-28T20:30:54.242Z,100.00
2023-03-28T20:33:22.437Z,100.00
2023-03-28T20:35:58.245Z,100.00
2023-03-28T20:38:27.095Z,100.00
2023-03-28T20:40:54.750Z,100.00
2023-03-28T20:43:26.568Z,100.00
2023-03-28T20:45:56.141Z,100.00
2023-03-28T20:48:34.463Z,100.00
2023-03-28T20:51:06.828Z,100.00
2023-03-28T20:53:34.831Z,100.00
2023-03-28T20:56:04.859Z,100.00
2023-03-28T20:58:33.795Z,100.00
2023-03-28T21:01:05.223Z,100.00
2023-03-28T21:03:46.656Z,100.00
2023-03-28T21:06:18.278Z,100.00
2023-03-28T21:08:47.618Z,100.00
2023-03-28T21:11:18.419Z,100.00
2023-03-28T21:13:46.418Z,100.00
2023-03-28T21:16:15.872Z,100.00
2023-03-28T21:18:44.221Z,100.00
2023-03-28T21:21:14.018Z,100.00
2023-03-28T21:23:42.148Z,100.00
2023-03-28T21:26:12.450Z,100.00
2023-03-28T21:28:40.851Z,100.00
2023-03-28T21:31:15.413Z,100.00
2023-03-28T21:33:43.513Z,100.00
2023-03-28T21:36:14.268Z,100.00
2023-03-28T21:38:41.918Z,100.00
2023-03-28T21:41:11.256Z,100.00
2023-03-28T21:43:39.737Z,100.00
2023-03-28T21:46:08.397Z,100.00
2023-03-28T21:48:36.681Z,100.00
2023-03-28T21:51:04.888Z,100.00
2023-03-28T21:53:38.630Z,100.00
2023-03-28T21:56:06.808Z,100.00
2023-03-28T21:58:34.975Z,100.00
2023-03-28T22:01:04.737Z,100.00
2023-03-28T22:03:32.861Z,100.00
2023-03-28T22:06:00.414Z,100.00
2023-03-28T22:08:28.067Z,100.00
2023-03-28T22:10:58.553Z,100.00
2023-03-28T22:13:28.843Z,100.00
2023-03-28T22:15:58.443Z,100.00
2023-03-28T22:18:26.959Z,100.00
2023-03-28T22:20:54.762Z,100.00
2023-03-28T22:23:24.458Z,100.00
2023-03-28T22:25:53.097Z,100.00
2023-03-28T22:28:24.446Z,100.00
2023-03-28T22:30:55.114Z,100.00
2023-03-28T22:33:23.564Z,100.00
2023-03-28T22:35:51.246Z,100.00
2023-03-28T22:38:19.624Z,100.00
2023-03-28T22:40:47.604Z,100.00
2023-03-28T22:43:16.315Z,100.00
2023-03-28T22:45:44.231Z,100.00
2023-03-28T22:48:14.525Z,100.00
2023-03-28T22:50:44.464Z,100.00
2023-03-28T22:53:14.221Z,100.00
2023-03-28T22:55:42.395Z,100.00
2023-03-28T22:58:10.084Z,100.00
2023-03-28T23:00:37.741Z,100.00
2023-03-28T23:03:05.482Z,100.00
2023-03-28T23:05:33.256Z,100.00
2023-03-28T23:08:00.997Z,100.00
2023-03-28T23:10:28.884Z,100.00
2023-03-28T23:12:56.436Z,100.00
2023-03-28T23:15:24.267Z,100.00
2023-03-28T23:17:52.092Z,100.00
2023-03-28T23:20:20.165Z,100.00
2023-03-28T23:22:49.372Z,100.00
2023-03-28T23:25:19.337Z,100.00
2023-03-28T23:27:47.548Z,100.00
2023-03-28T23:30:16.638Z,100.00
2023-03-28T23:32:44.284Z,100.00
2023-03-28T23:35:12.240Z,100.00
2023-03-28T23:37:40.485Z,100.00
2023-03-28T23:40:14.053Z,100.00
2023-03-28T23:42:44.514Z,100.00
2023-03-28T23:45:14.958Z,100.00
2023-03-28T23:47:43.833Z,100.00
2023-03-28T23:50:12.039Z,100.00
2023-03-28T23:52:39.828Z,100.00
2023-03-28T23:55:08.902Z,100.00
2023-03-28T23:57:37.272Z,100.00
